Time;durP1;ratioP1;P1;durP2;ratioP2;P2;SDS_P1;SDS_P2;PMS_P1;PMS_P2;Temp;Humidity;BMP_temperature;BMP_pressure;BME280_temperature;BME280_humidity;BME280_pressure;Samples;Min_cycle;Max_cycle;Signal;HPM_P1;HPM_P2
2022/07/28 07:59:10;;;;;;;2.60;1.80;;;;;;;18.02;54.68;101735.38;5318620;27;20363;-75
2022/07/28 08:01:44;;;;;;;5.53;1.88;;;;;;;18.12;54.94;101733.47;5322830;28;20536;-72
2022/07/28 08:04:16;;;;;;;6.03;1.83;;;;;;;18.06;54.57;101731.94;5312661;28;20064;-70
2022/07/28 08:06:48;;;;;;;8.50;5.70;;;;;;;18.23;54.91;101734.88;5313420;28;20483;-71
2022/07/28 08:09:19;;;;;;;4.45;2.15;;;;;;;18.23;54.73;101729.25;5308221;28;20032;-69
2022/07/28 08:11:51;;;;;;;4.85;2.22;;;;;;;18.39;54.95;101716.47;5301155;28;20054;-72
2022/07/28 08:14:22;;;;;;;4.70;2.08;;;;;;;18.34;54.38;101725.03;5301606;28;20025;-73
2022/07/28 08:16:55;;;;;;;7.07;2.35;;;;;;;18.49;54.76;101720.16;5288902;28;20029;-72
2022/07/28 08:19:26;;;;;;;5.40;1.85;;;;;;;18.56;54.79;101721.34;5289634;28;20016;-69
2022/07/28 08:22:00;;;;;;;3.03;1.58;;;;;;;18.58;54.24;101721.00;5301022;28;20440;-69
2022/07/28 08:24:31;;;;;;;4.50;1.80;;;;;;;18.67;54.50;101717.09;5300751;28;20024;-74
2022/07/28 08:27:03;;;;;;;5.15;1.63;;;;;;;18.82;54.33;101720.69;5301136;28;20020;-71
2022/07/28 08:29:34;;;;;;;4.70;2.35;;;;;;;18.78;53.53;101723.28;5305123;28;20027;-75
2022/07/28 08:32:06;;;;;;;5.13;2.13;;;;;;;18.75;53.45;101718.31;5301090;28;20120;-74
2022/07/28 08:34:37;;;;;;;21.83;14.73;;;;;;;18.81;53.55;101725.44;5297104;28;20468;-74
2022/07/28 08:37:08;;;;;;;9.98;4.45;;;;;;;18.84;53.32;101723.97;5311188;28;20040;-79
2022/07/28 08:39:40;;;;;;;9.60;2.63;;;;;;;19.03;53.17;101727.34;5314490;28;20032;-80
2022/07/28 08:42:16;;;;;;;8.65;2.30;;;;;;;19.16;52.59;101713.50;5301906;28;20028;-83
2022/07/28 08:45:00;;;;;;;10.18;3.35;;;;;;;19.04;52.83;101711.31;5308227;28;20055;-79
2022/07/28 08:47:34;;;;;;;7.68;2.22;;;;;;;18.91;52.56;101718.72;5304606;28;20055;-79
2022/07/28 08:50:09;;;;;;;5.50;2.13;;;;;;;18.95;52.52;101719.72;5298913;28;20111;-80
2022/07/28 08:52:44;;;;;;;10.88;3.50;;;;;;;18.89;52.70;101718.19;5301070;28;20063;-79
2022/07/28 08:55:17;;;;;;;;;;;;;;;19.16;52.31;101713.50;5301022;28;20372;-80
2022/07/28 08:57:49;;;;;;;6.28;1.80;;;;;;;19.21;52.68;101713.34;5310675;28;20363;-80
2022/07/28 09:00:22;;;;;;;3.33;1.92;;;;;;;19.27;52.86;101712.03;5321465;28;20027;-78
2022/07/28 09:02:54;;;;;;;4.57;2.00;;;;;;;19.43;52.56;101703.94;5320581;28;20019;-78
2022/07/28 09:05:26;;;;;;;3.47;1.65;;;;;;;19.52;51.80;101705.59;5321033;28;20042;-77
2022/07/28 09:07:58;;;;;;;7.07;2.10;;;;;;;19.59;51.72;101695.84;5308981;28;20096;-77
2022/07/28 09:10:32;;;;;;;4.10;2.00;;;;;;;19.75;51.38;101688.59;5304240;28;20024;-78
2022/07/28 09:13:04;;;;;;;4.15;1.65;;;;;;;19.69;51.48;101687.13;5307137;28;20114;-76
2022/07/28 09:15:36;;;;;;;6.18;2.08;;;;;;;19.65;51.54;101680.47;5313207;28;20110;-77
2022/07/28 09:18:10;;;;;;;5.75;2.25;;;;;;;19.67;51.05;101678.19;5318097;28;20047;-78
2022/07/28 09:20:42;;;;;;;6.30;2.08;;;;;;;19.82;51.04;101679.66;5306763;28;20078;-79
2022/07/28 09:23:14;;;;;;;16.13;14.25;;;;;;;19.70;51.13;101674.69;5306729;28;20024;-79
2022/07/28 09:25:47;;;;;;;7.60;3.75;;;;;;;19.82;50.82;101666.41;5305490;28;20031;-79
2022/07/28 09:28:18;;;;;;;12.10;7.03;;;;;;;19.83;50.94;101668.06;5306396;28;20024;-81
2022/07/28 09:30:49;;;;;;;5.55;2.00;;;;;;;19.95;50.53;101656.94;5306270;28;20078;-79
2022/07/28 09:33:26;;;;;;;21.25;13.65;;;;;;;19.75;50.02;101652.84;5297411;28;20051;-80
2022/07/28 09:35:58;;;;;;;5.20;2.65;;;;;;;19.80;50.12;101651.84;5300181;28;20479;-82
2022/07/28 09:38:39;;;;;;;5.15;2.72;;;;;;;19.74;50.57;101636.31;5306939;28;20028;-83
2022/07/28 09:41:10;;;;;;;7.40;1.88;;;;;;;19.98;50.38;101642.19;5307776;28;20023;-82
2022/07/28 09:43:43;;;;;;;6.03;2.15;;;;;;;20.27;50.93;101649.06;5323521;28;20360;-83
2022/07/28 09:46:17;;;;;;;9.75;2.30;;;;;;;20.10;48.50;101651.97;5320811;28;20020;-82
2022/07/28 09:48:48;;;;;;;8.73;2.05;;;;;;;20.05;48.88;101655.78;5323012;28;20058;-80
2022/07/28 09:51:24;;;;;;;11.00;7.50;;;;;;;20.19;48.66;101655.56;5308383;28;20060;-79
2022/07/28 09:54:11;;;;;;;7.85;2.10;;;;;;;20.12;48.83;101653.28;5296796;28;20363;-80
2022/07/28 09:56:44;;;;;;;5.60;1.90;;;;;;;20.17;48.40;101650.28;5305869;28;20514;-79
2022/07/28 09:59:17;;;;;;;5.95;1.50;;;;;;;20.37;48.74;101647.88;5290645;28;20036;-79
2022/07/28 10:01:51;;;;;;;4.18;1.65;;;;;;;20.20;47.66;101643.97;5289638;28;20027;-82
2022/07/28 10:04:30;;;;;;;2.58;1.55;;;;;;;20.24;48.35;101655.38;5307831;28;20109;-79
2022/07/28 10:07:04;;;;;;;5.18;1.63;;;;;;;20.26;48.27;101652.25;5305280;28;20501;-79
2022/07/28 10:09:36;;;;;;;3.38;2.13;;;;;;;20.36;47.51;101647.06;5305728;28;20507;-80
2022/07/28 10:12:16;;;;;;;2.60;1.67;;;;;;;20.42;47.70;101648.53;5306865;28;20020;-80
2022/07/28 10:14:50;;;;;;;3.13;1.63;;;;;;;20.57;47.42;101657.63;5319129;28;20035;-83
2022/07/28 10:17:33;;;;;;;3.53;1.13;;;;;;;20.74;47.40;101651.09;5308641;28;20020;-86
2022/07/28 10:20:06;;;;;;;3.17;1.42;;;;;;;20.85;46.12;101644.69;5316858;28;20086;-84
2022/07/28 10:22:39;;;;;;;6.18;1.80;;;;;;;20.77;46.18;101637.13;5301973;28;20464;-83
2022/07/28 10:25:13;;;;;;;3.85;1.33;;;;;;;20.76;46.05;101635.50;5286571;28;20084;-83
2022/07/28 10:27:47;;;;;;;4.07;1.77;;;;;;;20.89;46.19;101629.91;5304707;28;20026;-83
2022/07/28 10:30:18;;;;;;;2.90;1.50;;;;;;;20.89;45.44;101632.75;5328597;28;20110;-81
2022/07/28 10:32:52;;;;;;;5.50;1.98;;;;;;;20.70;46.17;101633.19;5304171;28;20103;-81
2022/07/28 10:35:25;;;;;;;4.85;1.70;;;;;;;20.81;45.42;101629.66;5284536;28;20017;-82
2022/07/28 10:38:04;;;;;;;3.30;1.60;;;;;;;20.93;45.65;101633.72;5300085;28;20077;-84
2022/07/28 10:40:40;;;;;;;6.00;2.30;;;;;;;20.91;45.59;101624.78;5306298;28;20034;-84
2022/07/28 10:43:12;;;;;;;3.33;2.03;;;;;;;21.09;46.18;101628.31;5324024;28;20073;-83
2022/07/28 10:45:44;;;;;;;3.55;2.10;;;;;;;21.24;45.71;101625.72;5312006;28;20048;-79
2022/07/28 10:48:20;;;;;;;8.48;5.53;;;;;;;21.25;45.13;101632.19;5293483;28;20048;-77
2022/07/28 10:50:53;;;;;;;5.45;2.60;;;;;;;21.19;45.53;101619.44;5305028;28;20028;-77
2022/07/28 10:53:52;;;;;;;3.80;1.48;;;;;;;21.33;45.60;101622.00;5305214;28;20363;-82
2022/07/28 10:56:47;;;;;;;3.83;1.35;;;;;;;21.40;45.13;101625.13;5290702;28;20096;-81
2022/07/28 10:59:49;;;;;;;8.07;5.35;;;;;;;21.56;45.04;101626.13;5305888;28;20043;-81
2022/07/28 11:02:44;;;;;;;4.95;2.40;;;;;;;21.56;44.37;101619.69;5305121;28;20040;-77
2022/07/28 11:05:35;;;;;;;3.28;1.55;;;;;;;21.45;44.26;101617.28;5304201;28;20042;-77
2022/07/28 11:08:08;;;;;;;4.93;1.73;;;;;;;21.57;44.61;101615.66;5283101;28;20100;-78
2022/07/28 11:10:50;;;;;;;5.40;1.90;;;;;;;21.67;44.31;101623.72;5286351;28;20473;-78
2022/07/28 11:13:30;;;;;;;7.97;2.15;;;;;;;21.65;43.61;101618.44;5304245;28;20028;-78
2022/07/28 11:16:14;;;;;;;14.68;5.07;;;;;;;21.95;43.88;101614.63;5303364;28;20077;-77
2022/07/28 11:19:04;;;;;;;6.30;1.83;;;;;;;22.03;43.11;101599.59;5304282;28;20035;-78
2022/07/28 11:21:36;;;;;;;5.47;2.17;;;;;;;21.89;42.70;101595.09;5303239;28;20078;-78
2022/07/28 11:24:07;;;;;;;4.45;1.70;;;;;;;22.02;43.11;101595.94;5301269;28;20058;-78
2022/07/28 11:26:43;;;;;;;6.05;2.20;;;;;;;22.07;42.44;101601.38;5306649;28;20055;-77
2022/07/28 11:29:15;;;;;;;4.70;2.03;;;;;;;22.02;42.63;101595.94;5307382;28;20024;-71
2022/07/28 11:31:46;;;;;;;5.93;2.13;;;;;;;22.11;42.57;101591.03;5306779;28;20544;-71
2022/07/28 11:34:22;;;;;;;4.37;2.77;;;;;;;22.26;42.87;101594.34;5319922;28;20471;-72
2022/07/28 11:36:56;;;;;;;4.72;1.50;;;;;;;22.35;42.51;101606.38;5312659;28;20316;-72
2022/07/28 11:39:32;;;;;;;5.65;1.50;;;;;;;22.30;41.74;101592.50;5303497;28;20093;-74
2022/07/28 11:42:22;;;;;;;40.25;35.92;;;;;;;22.26;42.43;101585.88;5284027;28;20359;-73
2022/07/28 11:44:55;;;;;;;6.93;4.80;;;;;;;22.25;41.76;101573.75;5306769;28;20490;-73
2022/07/28 11:47:28;;;;;;;6.20;2.22;;;;;;;22.25;41.90;101567.28;5283105;28;20027;-77
2022/07/28 11:50:16;;;;;;;2.15;1.20;;;;;;;22.21;41.91;101574.81;5283202;28;20021;-77
2022/07/28 11:52:53;;;;;;;3.35;1.60;;;;;;;22.11;41.80;101571.25;5292560;28;20020;-78
2022/07/28 11:55:24;;;;;;;3.28;1.55;;;;;;;22.25;42.15;101573.75;5305158;28;20040;-79
2022/07/28 11:57:55;;;;;;;5.25;1.92;;;;;;;22.20;41.73;101564.69;5297856;28;20420;-78
2022/07/28 12:00:27;;;;;;;3.22;1.63;;;;;;;22.21;40.99;101574.81;5325630;28;20024;-78
2022/07/28 12:03:04;;;;;;;3.42;1.38;;;;;;;22.23;40.69;101564.81;5314748;28;20027;-76
2022/07/28 12:05:36;;;;;;;5.88;1.80;;;;;;;22.35;40.83;101567.66;5315491;28;20115;-82
2022/07/28 12:08:07;;;;;;;3.80;1.60;;;;;;;22.49;41.13;101566.47;5303232;28;20491;-76
2022/07/28 12:10:39;;;;;;;3.03;1.42;;;;;;;22.59;41.17;101565.97;5310129;28;20158;-76
2022/07/28 12:13:11;;;;;;;4.82;1.75;;;;;;;22.63;40.81;101574.59;5302399;28;20028;-77
2022/07/28 12:15:49;;;;;;;3.20;1.50;;;;;;;22.79;41.06;101559.38;5313258;28;20031;-76
2022/07/28 12:18:20;;;;;;;4.18;1.90;;;;;;;22.91;40.83;101566.19;5303115;28;20043;-76
2022/07/28 12:20:53;;;;;;;9.27;6.40;;;;;;;22.78;40.34;101562.56;5303185;28;20028;-77
2022/07/28 12:23:33;;;;;;;9.25;4.60;;;;;;;23.04;40.43;101556.53;5300647;28;20050;-77
2022/07/28 12:26:05;;;;;;;4.03;1.48;;;;;;;23.23;40.54;101556.69;5282511;28;20029;-76
2022/07/28 12:28:37;;;;;;;2.42;1.30;;;;;;;23.31;39.35;101563.38;5281996;28;20107;-76
2022/07/28 12:31:11;;;;;;;4.85;1.80;;;;;;;23.34;39.19;101557.03;5287841;28;20095;-76
2022/07/28 12:33:43;;;;;;;6.90;1.60;;;;;;;23.41;38.27;101557.19;5302726;28;20026;-77
2022/07/28 12:36:17;;;;;;;4.28;2.47;;;;;;;23.55;37.95;101550.31;5304303;28;20027;-82
2022/07/28 12:38:50;;;;;;;3.23;1.43;;;;;;;23.40;38.87;101552.72;5304068;28;20030;-81
2022/07/28 12:41:21;;;;;;;2.03;1.38;;;;;;;23.19;38.04;101546.47;5303170;28;20081;-82
2022/07/28 12:43:53;;;;;;;3.92;1.33;;;;;;;23.31;39.60;101546.41;5318822;28;20530;-82
2022/07/28 12:46:27;;;;;;;6.32;1.95;;;;;;;23.36;38.13;101543.31;5316704;28;20035;-80
2022/07/28 12:49:00;;;;;;;3.67;1.52;;;;;;;23.49;38.05;101540.44;5307210;28;20133;-79
2022/07/28 12:51:40;;;;;;;4.57;1.50;;;;;;;23.49;38.33;101541.25;5307878;28;20024;-79
2022/07/28 12:54:13;;;;;;;73.70;56.35;;;;;;;23.53;37.65;101547.03;5307627;28;20472;-78
2022/07/28 12:56:50;;;;;;;7.38;1.95;;;;;;;23.26;37.89;101543.81;5306709;28;20461;-79
2022/07/28 12:59:31;;;;;;;3.53;1.42;;;;;;;23.31;38.28;101537.91;5294824;28;20094;-78
2022/07/28 13:02:04;;;;;;;2.83;1.50;;;;;;;23.46;38.37;101536.31;5306390;28;20442;-79
2022/07/28 13:04:47;;;;;;;3.85;2.17;;;;;;;23.81;37.89;101530.03;5324487;28;20027;-78
2022/07/28 13:07:18;;;;;;;3.55;1.63;;;;;;;23.93;36.83;101535.63;5292897;28;20063;-77
2022/07/28 13:10:02;;;;;;;4.77;2.00;;;;;;;24.06;37.13;101536.34;5321690;28;20036;-79
2022/07/28 13:12:34;;;;;;;4.32;1.40;;;;;;;24.22;37.20;101528.66;5306955;28;20285;-79
2022/07/28 13:15:15;;;;;;;4.90;1.48;;;;;;;24.20;36.75;101536.69;5306949;28;20123;-79
2022/07/28 13:17:52;;;;;;;4.63;1.40;;;;;;;24.18;36.81;101538.25;5309683;28;20058;-79
2022/07/28 13:20:25;;;;;;;3.55;1.55;;;;;;;23.84;36.89;101535.78;5315038;28;20135;-78
2022/07/28 13:22:56;;;;;;;3.00;1.25;;;;;;;23.79;37.17;101538.06;5293711;28;20063;-78
2022/07/28 13:25:27;;;;;;;5.38;1.98;;;;;;;23.76;37.59;101536.78;5302129;28;20051;-78
2022/07/28 13:27:59;;;;;;;2.55;1.55;;;;;;;23.75;37.63;101543.63;5301092;28;20024;-80
2022/07/28 13:30:30;;;;;;;6.80;2.00;;;;;;;23.99;37.68;101536.16;5306252;28;20085;-80
2022/07/28 13:33:01;;;;;;;4.50;2.20;;;;;;;24.11;37.42;101538.06;5309090;28;20020;-78
2022/07/28 13:35:33;;;;;;;5.68;1.73;;;;;;;24.19;36.92;101526.56;5308768;28;20023;-80
2022/07/28 13:38:04;;;;;;;3.38;1.63;;;;;;;24.18;36.43;101526.91;5306320;28;20032;-78
2022/07/28 13:40:36;;;;;;;6.60;1.95;;;;;;;23.92;36.66;101530.31;5288755;28;20082;-80
2022/07/28 13:43:07;;;;;;;3.35;1.60;;;;;;;23.77;38.33;101529.09;5305635;28;20016;-78
2022/07/28 13:45:38;;;;;;;3.75;1.60;;;;;;;23.72;37.80;101524.50;5305598;28;20099;-80
2022/07/28 13:48:10;;;;;;;3.20;1.33;;;;;;;23.62;37.69;101525.00;5292442;28;20048;-77
2022/07/28 13:50:41;;;;;;;6.05;1.50;;;;;;;23.84;37.85;101530.09;5284776;28;20028;-79
2022/07/28 13:53:12;;;;;;;8.27;3.58;;;;;;;23.82;37.80;101523.97;5285238;28;20429;-76
2022/07/28 13:55:44;;;;;;;5.15;2.88;;;;;;;23.98;37.89;101514.66;5285808;28;20079;-75
2022/07/28 13:58:15;;;;;;;2.53;1.73;;;;;;;24.23;37.68;101516.13;5305495;28;20135;-78
2022/07/28 14:00:46;;;;;;;17.85;16.08;;;;;;;24.23;37.37;101513.28;5310818;28;20043;-78
2022/07/28 14:03:18;;;;;;;3.63;1.80;;;;;;;24.35;36.60;101508.72;5303716;28;20031;-79
2022/07/28 14:05:49;;;;;;;3.60;1.85;;;;;;;24.56;36.63;101503.56;5317913;28;20028;-79
2022/07/28 14:08:22;;;;;;;5.88;1.30;;;;;;;24.62;36.18;101506.94;5305708;28;20024;-79
2022/07/28 14:11:00;;;;;;;2.67;1.52;;;;;;;24.53;36.11;101507.16;5312199;28;20024;-78
2022/07/28 14:13:35;;;;;;;2.80;1.67;;;;;;;24.44;36.14;101504.50;5298639;28;20024;-78
2022/07/28 14:16:06;;;;;;;3.40;1.52;;;;;;;24.48;36.09;101502.59;5304799;28;20036;-79
2022/07/28 14:18:37;;;;;;;5.07;1.88;;;;;;;24.29;36.39;101500.50;5303933;28;20039;-76
2022/07/28 14:21:09;;;;;;;3.55;1.60;;;;;;;24.36;36.09;101499.00;5305134;28;20081;-75
2022/07/28 14:23:40;;;;;;;5.07;1.67;;;;;;;24.27;36.46;101502.88;5305326;28;20020;-77
2022/07/28 14:26:12;;;;;;;5.00;1.40;;;;;;;24.31;36.93;101494.44;5303296;28;20053;-76
2022/07/28 14:28:43;;;;;;;3.90;1.85;;;;;;;24.12;37.02;101502.88;5303913;28;20468;-78
2022/07/28 14:31:16;;;;;;;9.45;2.25;;;;;;;24.23;37.10;101496.28;5289894;28;20476;-77
2022/07/28 14:33:48;;;;;;;5.80;2.65;;;;;;;24.18;36.82;101493.72;5295788;28;20049;-76
2022/07/28 14:36:19;;;;;;;8.20;5.72;;;;;;;24.27;37.33;101502.88;5304489;28;20012;-78
2022/07/28 14:38:50;;;;;;;3.85;1.90;;;;;;;24.35;37.26;101500.22;5305026;28;20032;-76
2022/07/28 14:41:27;;;;;;;4.05;1.80;;;;;;;24.20;37.12;101487.69;5304577;28;20027;-74
2022/07/28 14:43:58;;;;;;;6.25;1.30;;;;;;;24.32;36.81;101495.28;5304710;28;20036;-78
2022/07/28 14:46:30;;;;;;;3.42;1.33;;;;;;;24.37;37.08;101495.00;5304076;28;20360;-80
2022/07/28 14:49:01;;;;;;;5.25;2.45;;;;;;;24.57;37.14;101491.06;5283486;28;20364;-78
2022/07/28 14:51:32;;;;;;;6.72;1.90;;;;;;;24.56;36.95;101486.56;5286651;28;20036;-78
2022/07/28 14:54:04;;;;;;;6.85;1.90;;;;;;;24.42;36.75;101487.03;5303871;28;20378;-78
2022/07/28 14:56:36;;;;;;;5.80;2.05;;;;;;;24.25;36.65;101491.06;5304987;28;20460;-76
2022/07/28 14:59:07;;;;;;;17.95;16.05;;;;;;;24.12;37.07;101486.72;5304430;28;20114;-75
2022/07/28 15:01:39;;;;;;;24.00;21.50;;;;;;;24.21;37.28;101486.50;5303760;28;20472;-75
2022/07/28 15:04:12;;;;;;;4.28;1.90;;;;;;;24.10;37.26;101486.25;5298497;28;20052;-76
2022/07/28 15:06:44;;;;;;;5.28;2.35;;;;;;;24.02;37.32;101478.75;5283105;28;20464;-78
2022/07/28 15:09:15;;;;;;;4.82;1.38;;;;;;;24.00;37.87;101464.94;5291594;28;20027;-73
2022/07/28 15:11:46;;;;;;;3.42;2.50;;;;;;;24.02;37.63;101478.75;5304114;28;20032;-76
2022/07/28 15:14:17;;;;;;;3.55;1.75;;;;;;;23.99;37.20;101488.81;5304300;28;20479;-75
2022/07/28 15:16:49;;;;;;;2.60;1.40;;;;;;;23.95;37.61;101487.06;5303708;28;20016;-78
2022/07/28 15:19:21;;;;;;;4.22;3.33;;;;;;;23.99;37.41;101479.50;5286393;28;20028;-77
2022/07/28 15:21:52;;;;;;;24.98;21.23;;;;;;;23.99;37.41;101468.16;5283971;28;20044;-77
2022/07/28 15:24:28;;;;;;;9.05;6.32;;;;;;;23.98;38.03;101477.84;5290300;28;20027;-76
2022/07/28 15:27:00;;;;;;;6.18;1.80;;;;;;;24.10;37.73;101477.75;5304518;28;20020;-79
2022/07/28 15:29:34;;;;;;;4.30;1.45;;;;;;;23.94;37.56;101483.44;5303378;28;20020;-72
2022/07/28 15:32:06;;;;;;;3.92;1.45;;;;;;;23.97;37.39;101482.69;5302366;28;20031;-73
2022/07/28 15:34:38;;;;;;;7.38;1.92;;;;;;;23.98;37.42;101475.00;5303536;28;20482;-73
2022/07/28 15:37:09;;;;;;;4.55;1.70;;;;;;;24.03;37.56;101464.25;5303377;28;20020;-78
2022/07/28 15:39:41;;;;;;;6.85;5.40;;;;;;;23.98;37.48;101463.69;5305654;28;20093;-80
2022/07/28 15:42:12;;;;;;;10.07;9.10;;;;;;;23.93;37.55;101466.78;5305918;28;20020;-76
2022/07/28 15:44:43;;;;;;;5.88;1.50;;;;;;;23.85;37.76;101460.97;5303394;28;20082;-80
2022/07/28 15:47:15;;;;;;;4.90;1.60;;;;;;;23.92;37.55;101465.16;5304058;28;20028;-75
2022/07/28 15:49:49;;;;;;;3.33;1.55;;;;;;;23.97;37.88;101470.53;5303761;28;20062;-78
2022/07/28 15:52:20;;;;;;;5.05;1.83;;;;;;;24.01;38.09;101471.47;5302582;28;20036;-80
2022/07/28 15:54:52;;;;;;;3.85;1.58;;;;;;;24.02;37.69;101468.25;5301267;28;20020;-79
2022/07/28 15:57:23;;;;;;;6.78;1.60;;;;;;;24.22;37.56;101465.50;5281818;28;20095;-82
2022/07/28 15:59:54;;;;;;;5.07;2.05;;;;;;;24.03;37.82;101464.25;5301980;28;20513;-80
2022/07/28 16:02:26;;;;;;;2.63;1.60;;;;;;;24.15;37.82;101465.31;5303623;28;20028;-79
2022/07/28 16:04:59;;;;;;;3.05;1.80;;;;;;;24.04;38.23;101465.88;5302924;28;20034;-80
2022/07/28 16:07:33;;;;;;;3.22;1.50;;;;;;;23.95;37.66;101464.41;5303820;28;20059;-80
2022/07/28 16:10:05;;;;;;;3.10;1.75;;;;;;;24.00;38.06;101461.31;5303892;28;20020;-79
2022/07/28 16:12:36;;;;;;;6.43;1.60;;;;;;;23.87;38.07;101461.41;5301965;28;20016;-80
2022/07/28 16:15:08;;;;;;;3.22;1.25;;;;;;;23.87;37.83;101461.41;5303898;28;20020;-79
2022/07/28 16:17:40;;;;;;;5.22;1.50;;;;;;;23.73;37.93;101463.88;5299068;28;20017;-79
2022/07/28 16:20:12;;;;;;;7.68;2.47;;;;;;;23.72;38.09;101456.56;5285146;28;20074;-80
2022/07/28 16:22:43;;;;;;;7.80;1.52;;;;;;;23.67;37.70;101453.97;5287843;28;20024;-79
2022/07/28 16:25:19;;;;;;;2.45;1.45;;;;;;;23.64;38.19;101446.22;5287461;28;20074;-80
2022/07/28 16:27:50;;;;;;;3.38;1.50;;;;;;;23.71;39.03;101439.91;5287727;28;20103;-81
2022/07/28 16:30:22;;;;;;;3.63;1.30;;;;;;;23.62;38.12;101448.56;5303565;28;20107;-79
2022/07/28 16:32:53;;;;;;;4.50;2.53;;;;;;;23.62;38.00;101446.59;5313089;28;20352;-79
2022/07/28 16:35:36;;;;;;;2.50;1.38;;;;;;;23.72;38.38;101442.41;5308063;28;20375;-80
2022/07/28 16:38:08;;;;;;;3.05;1.60;;;;;;;23.66;38.31;101449.50;5308763;28;20115;-81
2022/07/28 16:40:39;;;;;;;4.60;1.92;;;;;;;23.77;38.33;101438.47;5307588;28;20312;-81
2022/07/28 16:43:11;;;;;;;4.55;1.70;;;;;;;23.85;38.19;101446.81;5307985;28;20340;-76
2022/07/28 16:45:42;;;;;;;5.60;1.83;;;;;;;23.72;38.09;101435.88;5305277;28;20435;-88
2022/07/28 16:48:13;;;;;;;4.13;1.60;;;;;;;23.65;38.38;101442.22;5286798;28;20025;-77
2022/07/28 16:50:45;;;;;;;3.40;1.20;;;;;;;23.77;38.29;101442.13;5303214;28;20020;-79
2022/07/28 16:53:16;;;;;;;3.83;1.73;;;;;;;23.82;39.44;101430.53;5305858;28;20108;-79
2022/07/28 16:55:47;;;;;;;4.13;1.50;;;;;;;23.72;38.26;101431.06;5306675;28;20024;-78
2022/07/28 16:58:21;;;;;;;4.00;2.20;;;;;;;23.66;38.38;101427.66;5307170;28;20131;-78
2022/07/28 17:00:54;;;;;;;4.38;1.75;;;;;;;23.61;38.62;101430.78;5306922;28;20027;-79
2022/07/28 17:03:28;;;;;;;4.25;1.40;;;;;;;23.62;38.45;101434.41;5299375;28;20017;-79
2022/07/28 17:05:59;;;;;;;4.30;1.65;;;;;;;23.63;38.87;101427.59;5286431;28;20407;-78
2022/07/28 17:08:30;;;;;;;100.68;89.10;;;;;;;23.49;38.55;101438.53;5297237;28;20020;-79
2022/07/28 17:11:02;;;;;;;4.40;2.20;;;;;;;23.55;38.66;101431.44;5306692;28;20024;-77
2022/07/28 17:13:33;;;;;;;2.97;1.33;;;;;;;23.46;38.59;101436.44;5307200;28;20034;-80
2022/07/28 17:16:05;;;;;;;3.55;1.30;;;;;;;23.50;39.17;101437.34;5306347;28;20429;-79
2022/07/28 17:18:39;;;;;;;3.20;1.40;;;;;;;23.46;38.82;101451.41;5307211;28;20458;-80
2022/07/28 17:21:10;;;;;;;4.50;1.38;;;;;;;23.45;38.44;101444.09;5306642;28;20448;-79
2022/07/28 17:23:42;;;;;;;3.38;1.23;;;;;;;23.43;39.58;101441.63;5306135;28;20103;-79
2022/07/28 17:26:17;;;;;;;5.20;2.30;;;;;;;23.40;39.16;101433.88;5306691;28;20024;-79
2022/07/28 17:28:49;;;;;;;2.75;1.35;;;;;;;23.38;39.74;101444.72;5304826;28;20024;-79
